createdAt,value
2022-10-09T00:01:24.656Z,26.79
2022-10-09T00:03:55.317Z,26.68
2022-10-09T00:06:29.620Z,28.33
2022-10-09T00:08:58.424Z,28.32
2022-10-09T00:11:28.384Z,27.85
2022-10-09T00:13:56.606Z,26.96
2022-10-09T00:16:25.650Z,27.45
2022-10-09T00:18:54.395Z,26.42
2022-10-09T00:21:31.398Z,25.86
2022-10-09T00:24:01.887Z,26.31
2022-10-09T00:26:29.791Z,25.74
2022-10-09T00:28:57.822Z,26.86
2022-10-09T00:31:25.789Z,26.38
2022-10-09T00:33:53.674Z,24.39
2022-10-09T00:36:24.189Z,19.63
2022-10-09T00:38:54.245Z,14.64
2022-10-09T00:41:28.787Z,13.51
2022-10-09T00:44:02.656Z,12.03
2022-10-09T00:46:37.203Z,9.47
2022-10-09T00:49:22.846Z,8.10
2022-10-09T00:51:52.304Z,6.34
2022-10-09T00:54:24.675Z,5.66
2022-10-09T00:56:54.022Z,4.95
2022-10-09T00:59:22.137Z,4.62
2022-10-09T01:01:50.178Z,4.56
2022-10-09T01:04:18.112Z,3.98
2022-10-09T01:07:13.749Z,3.79
2022-10-09T01:09:47.708Z,7.60
2022-10-09T01:12:49.526Z,12.48
2022-10-09T01:15:20.101Z,13.06
2022-10-09T01:18:02.097Z,12.86
2022-10-09T01:20:47.067Z,13.23
2022-10-09T01:23:38.192Z,11.27
2022-10-09T01:26:21.254Z,10.36
2022-10-09T01:28:58.274Z,9.14
2022-10-09T01:31:30.624Z,8.93
2022-10-09T01:34:01.382Z,9.04
2022-10-09T01:36:31.095Z,9.59
2022-10-09T01:39:01.961Z,9.66
2022-10-09T01:41:30.377Z,9.40
2022-10-09T01:43:58.233Z,8.96
2022-10-09T01:46:33.224Z,8.03
2022-10-09T01:49:30.177Z,7.05
2022-10-09T01:52:24.288Z,7.25
2022-10-09T01:55:13.395Z,6.96
2022-10-09T01:58:06.201Z,7.56
2022-10-09T02:00:42.390Z,8.27
2022-10-09T02:03:13.807Z,8.43
2022-10-09T02:05:43.468Z,8.96
2022-10-09T02:08:16.389Z,9.68
2022-10-09T02:10:47.370Z,10.18
2022-10-09T02:13:15.399Z,10.61
2022-10-09T02:16:01.062Z,10.27
2022-10-09T02:18:38.358Z,11.35
2022-10-09T02:21:17.318Z,10.82
2022-10-09T02:23:49.182Z,11.36
2022-10-09T02:26:18.917Z,11.06
2022-10-09T02:28:47.104Z,11.41
2022-10-09T02:31:15.158Z,11.11
2022-10-09T02:33:43.309Z,10.92
2022-10-09T02:36:11.661Z,11.15
2022-10-09T02:38:39.568Z,10.76
2022-10-09T02:41:07.402Z,10.60
2022-10-09T02:43:35.994Z,10.42
2022-10-09T02:46:03.930Z,10.82
2022-10-09T02:48:31.826Z,10.74
2022-10-09T02:51:01.310Z,10.22
2022-10-09T02:53:29.170Z,9.78
2022-10-09T02:55:57.235Z,8.91
2022-10-09T02:58:25.380Z,8.81
2022-10-09T03:00:53.960Z,8.15
2022-10-09T03:03:21.847Z,8.06
2022-10-09T03:06:02.774Z,7.81
2022-10-09T03:08:30.854Z,6.75
2022-10-09T03:10:58.735Z,7.05
2022-10-09T03:13:26.609Z,7.29
2022-10-09T03:15:54.533Z,6.95
2022-10-09T03:18:22.452Z,7.09
2022-10-09T03:20:50.334Z,6.38
2022-10-09T03:23:18.199Z,5.90
2022-10-09T03:25:55.815Z,6.05
2022-10-09T03:28:24.088Z,5.84
2022-10-09T03:30:52.767Z,5.50
2022-10-09T03:33:21.321Z,5.57
2022-10-09T03:35:50.030Z,4.68
2022-10-09T03:38:17.961Z,4.66
2022-10-09T03:40:45.903Z,4.81
2022-10-09T03:43:13.697Z,5.01
2022-10-09T03:45:42.966Z,4.78
2022-10-09T03:48:12.154Z,4.95
2022-10-09T03:50:41.504Z,4.89
2022-10-09T03:53:11.721Z,4.70
2022-10-09T03:55:40.440Z,4.92
2022-10-09T03:58:08.541Z,4.66
2022-10-09T04:00:37.031Z,4.69
2022-10-09T04:03:05.411Z,4.27
2022-10-09T04:05:35.211Z,4.29
2022-10-09T04:08:03.062Z,4.07
2022-10-09T04:10:30.963Z,3.85
2022-10-09T04:12:58.814Z,3.67
2022-10-09T04:15:26.798Z,4.01
2022-10-09T04:17:54.721Z,3.92
2022-10-09T04:20:22.658Z,4.09
2022-10-09T04:22:50.803Z,3.90
2022-10-09T04:25:19.002Z,4.10
2022-10-09T04:27:46.843Z,3.96
2022-10-09T04:30:14.769Z,4.21
2022-10-09T04:32:42.624Z,4.06
2022-10-09T04:35:10.473Z,3.87
2022-10-09T04:37:38.370Z,4.03
2022-10-09T04:40:06.522Z,4.25
2022-10-09T04:42:34.370Z,4.07
2022-10-09T04:45:02.290Z,4.31
2022-10-09T04:47:31.075Z,4.32
2022-10-09T04:49:58.991Z,3.93
2022-10-09T04:52:26.865Z,4.23
2022-10-09T04:54:54.703Z,4.05
2022-10-09T04:57:22.578Z,4.11
2022-10-09T04:59:50.510Z,4.31
2022-10-09T05:02:18.425Z,4.59
2022-10-09T05:04:46.866Z,5.02
2022-10-09T05:07:14.799Z,5.10
2022-10-09T05:09:42.689Z,5.18
2022-10-09T05:12:10.585Z,5.65
2022-10-09T05:14:38.423Z,5.59
2022-10-09T05:17:13.954Z,5.28
2022-10-09T05:19:42.729Z,5.36
2022-10-09T05:22:10.601Z,5.79
2022-10-09T05:24:38.402Z,5.78
2022-10-09T05:27:06.855Z,5.72
2022-10-09T05:29:34.787Z,5.87
2022-10-09T05:32:02.988Z,5.61
2022-10-09T05:34:30.895Z,5.07
2022-10-09T05:36:58.721Z,5.19
2022-10-09T05:39:26.659Z,5.10
2022-10-09T05:41:54.499Z,5.05
2022-10-09T05:44:22.443Z,5.05
2022-10-09T05:46:50.323Z,4.79
2022-10-09T05:49:18.476Z,4.69
2022-10-09T05:51:46.419Z,4.82
2022-10-09T05:54:16.681Z,4.97
2022-10-09T05:56:45.250Z,4.57
2022-10-09T05:59:18.909Z,5.17
2022-10-09T06:01:50.259Z,5.28
2022-10-09T06:04:23.328Z,5.49
2022-10-09T06:06:51.962Z,5.78
2022-10-09T06:09:23.257Z,6.03
2022-10-09T06:11:53.005Z,6.77
2022-10-09T06:14:25.040Z,7.02
2022-10-09T06:16:53.084Z,7.78
2022-10-09T06:19:21.096Z,8.06
2022-10-09T06:21:49.331Z,8.31
2022-10-09T06:24:28.798Z,8.82
2022-10-09T06:26:58.222Z,10.52
2022-10-09T06:29:26.885Z,10.77
2022-10-09T06:31:54.738Z,11.20
2022-10-09T06:34:22.817Z,10.88
2022-10-09T06:36:50.737Z,10.67
2022-10-09T06:39:18.699Z,9.77
2022-10-09T06:41:46.607Z,9.70
2022-10-09T06:44:30.747Z,8.58
2022-10-09T06:46:58.581Z,8.04
2022-10-09T06:49:26.618Z,7.25
2022-10-09T06:51:54.480Z,6.28
2022-10-09T06:54:22.544Z,4.94
2022-10-09T06:56:50.332Z,4.43
2022-10-09T06:59:18.377Z,4.15
2022-10-09T07:01:46.352Z,3.99
2022-10-09T07:04:15.085Z,4.37
2022-10-09T07:06:45.265Z,4.29
2022-10-09T07:09:15.453Z,4.29
2022-10-09T07:11:46.346Z,4.18
2022-10-09T07:14:15.902Z,3.90
2022-10-09T07:16:46.152Z,3.91
2022-10-09T07:19:15.755Z,3.83
2022-10-09T07:21:45.721Z,4.29
2022-10-09T07:24:14.302Z,4.70
2022-10-09T07:26:44.836Z,4.27
2022-10-09T07:29:14.731Z,3.96
2022-10-09T07:31:42.611Z,3.90
2022-10-09T07:34:10.578Z,3.91
2022-10-09T07:36:38.426Z,3.96
2022-10-09T07:39:06.508Z,4.12
2022-10-09T07:41:34.602Z,4.17
2022-10-09T07:44:02.967Z,4.69
2022-10-09T07:46:33.675Z,4.72
2022-10-09T07:49:02.336Z,4.48
2022-10-09T07:51:31.462Z,4.22
2022-10-09T07:54:01.998Z,4.52
2022-10-09T07:56:35.123Z,4.28
2022-10-09T07:59:06.549Z,4.65
2022-10-09T08:01:36.009Z,4.12
2022-10-09T08:04:04.900Z,4.12
2022-10-09T08:06:34.209Z,5.87
2022-10-09T08:09:04.699Z,5.83
2022-10-09T08:11:35.262Z,6.01
2022-10-09T08:14:03.171Z,6.88
2022-10-09T08:16:32.123Z,6.08
2022-10-09T08:19:01.202Z,5.58
2022-10-09T08:21:29.576Z,5.93
2022-10-09T08:23:59.216Z,5.84
2022-10-09T08:26:29.766Z,5.75
2022-10-09T08:29:03.232Z,5.76
2022-10-09T08:31:31.976Z,5.53
2022-10-09T08:34:02.779Z,5.64
2022-10-09T08:36:32.012Z,5.12
2022-10-09T08:38:59.907Z,5.30
2022-10-09T08:41:53.255Z,5.00
2022-10-09T08:44:25.881Z,5.04
2022-10-09T08:46:53.953Z,4.96
2022-10-09T08:49:49.616Z,4.39
2022-10-09T08:52:29.082Z,4.33
2022-10-09T08:55:04.127Z,7.01
2022-10-09T08:57:34.464Z,4.73
2022-10-09T09:00:02.384Z,4.72
2022-10-09T09:02:49.213Z,4.89
2022-10-09T09:05:43.474Z,4.60
2022-10-09T09:08:42.227Z,4.29
2022-10-09T09:11:51.720Z,4.03
2022-10-09T09:14:46.013Z,4.02
2022-10-09T09:17:19.504Z,3.79
2022-10-09T09:20:05.317Z,3.69
2022-10-09T09:22:34.439Z,4.30
2022-10-09T09:25:18.543Z,3.98
2022-10-09T09:27:47.665Z,4.45
2022-10-09T09:30:21.116Z,4.30
2022-10-09T09:33:07.082Z,4.11
2022-10-09T09:35:52.905Z,4.58
2022-10-09T09:38:20.788Z,4.17
2022-10-09T09:40:50.787Z,4.93
2022-10-09T09:43:21.443Z,4.02
2022-10-09T09:45:56.580Z,3.94
2022-10-09T09:48:39.665Z,3.65
2022-10-09T09:51:30.486Z,3.69
2022-10-09T09:54:06.657Z,4.13
2022-10-09T09:59:39.297Z,4.27
2022-10-09T10:02:18.179Z,3.88
2022-10-09T10:04:56.533Z,3.89
2022-10-09T10:07:34.262Z,4.07
2022-10-09T10:10:07.329Z,3.80
2022-10-09T10:12:46.068Z,3.26
2022-10-09T10:15:28.902Z,3.13
2022-10-09T10:18:08.299Z,3.72
2022-10-09T10:20:48.476Z,3.61
2022-10-09T10:23:23.945Z,4.03
2022-10-09T10:25:55.877Z,5.61
2022-10-09T10:28:35.177Z,2.80
2022-10-09T10:31:06.559Z,2.96
2022-10-09T10:33:37.450Z,3.04
2022-10-09T10:36:10.058Z,2.84
2022-10-09T10:38:52.961Z,2.76
2022-10-09T10:41:34.075Z,2.82
2022-10-09T10:44:47.098Z,3.27
2022-10-09T10:47:22.641Z,2.69
2022-10-09T10:49:50.824Z,2.87
2022-10-09T10:52:43.507Z,2.85
2022-10-09T10:55:20.455Z,2.54
2022-10-09T10:58:03.363Z,3.31
2022-10-09T11:00:37.715Z,2.66
2022-10-09T11:03:14.859Z,2.94
2022-10-09T11:06:01.075Z,3.25
2022-10-09T11:08:41.788Z,3.49
2022-10-09T11:11:23.725Z,3.42
2022-10-09T11:14:24.239Z,2.59
2022-10-09T11:17:03.451Z,2.48
2022-10-09T11:19:53.290Z,2.04
2022-10-09T11:22:48.164Z,2.15
2022-10-09T11:25:26.454Z,2.73
2022-10-09T11:28:04.665Z,2.76
2022-10-09T11:30:43.616Z,4.43
2022-10-09T11:33:45.589Z,2.59
2022-10-09T11:36:38.434Z,2.22
2022-10-09T11:39:23.627Z,3.41
2022-10-09T11:41:53.771Z,2.64
2022-10-09T11:44:33.170Z,2.52
2022-10-09T11:47:55.991Z,3.72
2022-10-09T11:50:40.937Z,2.44
2022-10-09T11:53:08.776Z,2.38
2022-10-09T11:55:37.076Z,3.49
2022-10-09T11:58:25.362Z,3.04
2022-10-09T12:00:55.632Z,2.26
2022-10-09T12:03:36.001Z,2.59
2022-10-09T12:06:05.470Z,3.32
2022-10-09T12:08:33.938Z,3.28
2022-10-09T12:11:17.246Z,4.15
2022-10-09T12:13:52.710Z,3.71
2022-10-09T12:16:43.064Z,3.41
2022-10-09T12:19:44.504Z,4.57
2022-10-09T12:22:23.698Z,3.09
2022-10-09T12:24:57.686Z,2.99
2022-10-09T12:27:28.004Z,4.99
2022-10-09T12:30:11.571Z,3.62
2022-10-09T12:32:43.824Z,2.86
2022-10-09T12:35:37.489Z,2.81
2022-10-09T12:38:25.625Z,2.90
2022-10-09T12:40:56.130Z,3.16
2022-10-09T12:43:24.753Z,3.10
2022-10-09T12:45:54.455Z,3.04
2022-10-09T12:48:28.441Z,2.86
2022-10-09T12:50:56.879Z,4.11
2022-10-09T12:53:27.540Z,3.30
2022-10-09T12:56:00.640Z,2.57
2022-10-09T12:58:31.898Z,3.42
2022-10-09T13:01:02.843Z,6.19
2022-10-09T13:03:37.427Z,5.03
2022-10-09T13:06:12.027Z,5.07
2022-10-09T13:08:41.079Z,3.38
2022-10-09T13:11:16.786Z,3.58
2022-10-09T13:13:50.154Z,5.01
2022-10-09T13:16:18.403Z,7.09
2022-10-09T13:19:01.610Z,4.23
2022-10-09T13:21:35.147Z,4.80
2022-10-09T13:24:07.968Z,4.85
2022-10-09T13:26:35.908Z,5.79
2022-10-09T13:29:06.487Z,7.21
2022-10-09T13:31:36.664Z,6.02
2022-10-09T13:34:12.710Z,5.17
2022-10-09T13:36:41.171Z,5.32
2022-10-09T13:39:14.531Z,7.42
2022-10-09T13:41:43.752Z,5.53
2022-10-09T13:44:11.845Z,5.68
2022-10-09T13:46:39.792Z,5.70
2022-10-09T13:49:07.682Z,5.08
2022-10-09T13:51:36.226Z,7.53
2022-10-09T13:54:04.314Z,6.96
2022-10-09T13:56:32.273Z,7.61
2022-10-09T13:59:01.357Z,7.02
2022-10-09T14:01:29.271Z,6.53
2022-10-09T14:03:57.326Z,6.93
2022-10-09T14:06:25.190Z,5.53
2022-10-09T14:08:53.167Z,8.36
2022-10-09T14:11:21.041Z,9.98
2022-10-09T14:13:48.880Z,10.57
2022-10-09T14:16:16.877Z,6.40
2022-10-09T14:18:44.696Z,4.34
2022-10-09T14:21:15.587Z,3.21
2022-10-09T14:23:43.925Z,2.66
2022-10-09T14:26:11.753Z,2.22
2022-10-09T14:28:39.844Z,2.26
2022-10-09T14:31:07.853Z,2.02
2022-10-09T14:33:35.839Z,2.45
2022-10-09T14:36:14.524Z,2.36
2022-10-09T14:38:43.289Z,2.03
2022-10-09T14:41:13.286Z,2.01
2022-10-09T14:43:41.211Z,1.85
2022-10-09T14:46:12.548Z,2.17
2022-10-09T14:48:40.419Z,2.13
2022-10-09T14:51:12.024Z,1.73
2022-10-09T14:53:41.242Z,1.83
2022-10-09T14:56:12.218Z,1.73
2022-10-09T14:58:40.166Z,1.70
2022-10-09T15:01:08.279Z,1.90
2022-10-09T15:03:36.259Z,2.03
2022-10-09T15:06:06.653Z,2.10
2022-10-09T15:08:37.316Z,2.13
2022-10-09T15:11:05.357Z,1.99
2022-10-09T15:13:37.085Z,1.96
2022-10-09T15:16:08.695Z,3.16
2022-10-09T15:18:36.650Z,2.06
2022-10-09T15:21:05.156Z,1.91
2022-10-09T15:23:33.046Z,2.61
2022-10-09T15:26:01.290Z,2.11
2022-10-09T15:28:29.226Z,1.71
2022-10-09T15:31:00.343Z,1.73
2022-10-09T15:33:28.247Z,1.71
2022-10-09T15:35:56.084Z,1.89
2022-10-09T15:38:25.389Z,2.04
2022-10-09T15:40:55.554Z,3.81
2022-10-09T15:43:26.099Z,3.58
2022-10-09T15:46:02.554Z,3.00
2022-10-09T15:48:31.229Z,3.67
2022-10-09T15:51:04.049Z,2.88
2022-10-09T15:53:31.951Z,2.33
2022-10-09T15:56:05.529Z,2.64
2022-10-09T15:58:33.482Z,4.76
2022-10-09T16:01:07.662Z,3.34
2022-10-09T16:03:37.288Z,3.03
2022-10-09T16:06:07.861Z,3.19
2022-10-09T16:08:36.273Z,2.17
2022-10-09T16:13:42.646Z,1.99
2022-10-09T16:16:18.349Z,2.14
2022-10-09T16:18:47.530Z,3.36
2022-10-09T16:21:18.403Z,4.47
2022-10-09T16:23:46.651Z,3.18
2022-10-09T16:26:18.236Z,7.33
2022-10-09T16:28:47.414Z,3.54
2022-10-09T16:31:24.578Z,2.93
2022-10-09T16:33:53.205Z,2.42
2022-10-09T16:36:21.066Z,2.34
2022-10-09T16:38:49.432Z,2.46
2022-10-09T16:41:20.330Z,2.24
2022-10-09T16:43:50.417Z,2.33
2022-10-09T16:49:02.500Z,2.64
2022-10-09T16:51:33.576Z,2.57
2022-10-09T16:54:04.262Z,2.47
2022-10-09T16:56:36.318Z,2.59
2022-10-09T16:59:07.798Z,2.62
2022-10-09T17:01:37.895Z,2.39
2022-10-09T17:04:06.181Z,2.99
2022-10-09T17:06:34.138Z,3.04
2022-10-09T17:09:02.127Z,2.81
2022-10-09T17:11:30.639Z,2.43
2022-10-09T17:13:58.879Z,2.62
2022-10-09T17:16:29.648Z,2.28
2022-10-09T17:18:58.133Z,2.19
2022-10-09T17:21:29.320Z,2.08
2022-10-09T17:24:03.295Z,2.25
2022-10-09T17:26:31.545Z,2.07
2022-10-09T17:29:00.989Z,2.24
2022-10-09T17:31:29.489Z,2.63
2022-10-09T17:33:59.970Z,2.17
2022-10-09T17:36:30.790Z,2.13
2022-10-09T17:38:59.489Z,2.43
2022-10-09T17:41:29.131Z,2.19
2022-10-09T17:43:57.585Z,2.05
2022-10-09T17:46:27.801Z,2.32
2022-10-09T17:48:57.079Z,2.37
2022-10-09T17:51:36.868Z,2.74
2022-10-09T17:54:10.925Z,2.31
2022-10-09T17:56:40.629Z,2.32
2022-10-09T17:59:09.267Z,2.23
2022-10-09T18:01:37.387Z,2.43
2022-10-09T18:04:05.502Z,2.45
2022-10-09T18:06:35.231Z,2.50
2022-10-09T18:09:04.327Z,4.00
2022-10-09T18:11:32.189Z,2.85
2022-10-09T18:14:00.532Z,2.50
2022-10-09T18:16:35.972Z,2.72
2022-10-09T18:19:12.178Z,4.26
2022-10-09T18:21:44.064Z,7.53
2022-10-09T18:24:13.253Z,2.88
2022-10-09T18:26:42.807Z,2.28
2022-10-09T18:29:10.707Z,2.32
2022-10-09T18:31:38.703Z,3.00
2022-10-09T18:34:06.721Z,5.65
2022-10-09T18:36:34.979Z,2.95
2022-10-09T18:39:09.702Z,2.52
2022-10-09T18:41:37.715Z,2.28
2022-10-09T18:44:08.880Z,2.59
2022-10-09T18:46:41.581Z,2.42
2022-10-09T18:49:12.555Z,2.37
2022-10-09T18:51:42.199Z,2.30
2022-10-09T18:54:15.741Z,2.29
2022-10-09T18:56:46.732Z,2.58
2022-10-09T18:59:18.528Z,2.72
2022-10-09T19:01:46.606Z,2.40
2022-10-09T19:04:14.717Z,2.61
2022-10-09T19:06:42.584Z,2.93
2022-10-09T19:09:10.486Z,2.82
2022-10-09T19:11:38.408Z,2.78
2022-10-09T19:14:06.638Z,2.78
2022-10-09T19:16:35.586Z,3.02
2022-10-09T19:19:04.288Z,2.80
2022-10-09T19:21:32.147Z,2.73
2022-10-09T19:24:06.176Z,2.61
2022-10-09T19:26:35.314Z,2.76
2022-10-09T19:29:05.210Z,2.86
2022-10-09T19:31:36.429Z,2.79
2022-10-09T19:34:05.165Z,2.78
2022-10-09T19:36:34.390Z,2.62
2022-10-09T19:39:09.731Z,3.01
2022-10-09T19:41:38.966Z,2.67
2022-10-09T19:44:07.042Z,2.70
2022-10-09T19:46:39.980Z,2.73
2022-10-09T19:49:09.259Z,2.84
2022-10-09T19:51:37.705Z,3.08
2022-10-09T19:54:07.384Z,2.98
2022-10-09T19:56:36.771Z,3.18
2022-10-09T19:59:07.339Z,2.96
2022-10-09T20:01:37.703Z,2.84
2022-10-09T20:04:08.764Z,2.76
2022-10-09T20:06:39.111Z,3.02
2022-10-09T20:09:09.565Z,2.93
2022-10-09T20:11:37.758Z,3.25
2022-10-09T20:14:05.843Z,3.47
2022-10-09T20:16:34.061Z,3.39
2022-10-09T20:19:03.354Z,3.43
2022-10-09T20:21:33.071Z,3.31
2022-10-09T20:24:01.412Z,3.52
2022-10-09T20:26:31.404Z,3.73
2022-10-09T20:28:59.621Z,3.33
2022-10-09T20:31:28.097Z,3.31
2022-10-09T20:33:56.164Z,3.34
2022-10-09T20:36:28.005Z,3.37
2022-10-09T20:38:57.416Z,4.30
2022-10-09T20:41:27.620Z,4.60
2022-10-09T20:43:57.099Z,4.74
2022-10-09T20:46:27.977Z,4.35
2022-10-09T20:48:55.874Z,4.39
2022-10-09T20:51:25.226Z,4.20
2022-10-09T20:53:58.554Z,4.30
2022-10-09T20:56:28.956Z,4.59
2022-10-09T20:58:57.910Z,4.38
2022-10-09T21:01:27.138Z,4.11
2022-10-09T21:03:56.832Z,4.27
2022-10-09T21:06:24.941Z,4.04
2022-10-09T21:08:52.862Z,3.89
2022-10-09T21:11:21.523Z,3.58
2022-10-09T21:13:50.694Z,3.69
2022-10-09T21:16:21.578Z,3.33
2022-10-09T21:18:58.457Z,3.45
2022-10-09T21:21:27.747Z,3.32
2022-10-09T21:23:57.896Z,3.32
2022-10-09T21:26:27.237Z,3.41
2022-10-09T21:28:59.296Z,3.34
2022-10-09T21:31:30.332Z,3.33
2022-10-09T21:34:00.060Z,3.32
2022-10-09T21:36:36.855Z,3.44
2022-10-09T21:39:06.869Z,3.65
2022-10-09T21:41:35.640Z,3.42
2022-10-09T21:44:05.073Z,3.48
2022-10-09T21:46:34.261Z,3.46
2022-10-09T21:49:07.339Z,3.37
2022-10-09T21:51:35.606Z,3.39
2022-10-09T21:54:03.626Z,3.07
2022-10-09T21:56:31.481Z,3.15
2022-10-09T21:58:59.471Z,3.20
2022-10-09T22:01:27.520Z,3.31
2022-10-09T22:03:55.530Z,3.12
2022-10-09T22:06:23.342Z,3.49
2022-10-09T22:08:51.315Z,3.77
2022-10-09T22:11:19.250Z,3.57
2022-10-09T22:13:47.262Z,3.38
2022-10-09T22:16:16.074Z,3.36
2022-10-09T22:18:43.985Z,3.45
2022-10-09T22:21:14.178Z,3.09
2022-10-09T22:23:42.528Z,3.29
2022-10-09T22:26:17.062Z,3.28
2022-10-09T22:28:46.670Z,3.28
2022-10-09T22:31:21.586Z,3.43
2022-10-09T22:33:58.949Z,3.25
2022-10-09T22:36:30.060Z,3.22
2022-10-09T22:39:01.112Z,3.32
2022-10-09T22:41:30.820Z,3.26
2022-10-09T22:44:00.449Z,3.64
2022-10-09T22:46:33.823Z,3.48
2022-10-09T22:49:02.046Z,3.26
2022-10-09T22:51:30.600Z,3.50
2022-10-09T22:53:59.580Z,3.47
2022-10-09T22:56:36.476Z,3.58
2022-10-09T22:59:06.158Z,3.60
2022-10-09T23:01:38.604Z,3.49
2022-10-09T23:04:10.439Z,3.24
2022-10-09T23:06:38.543Z,3.43
2022-10-09T23:09:08.818Z,3.40
2022-10-09T23:11:36.731Z,3.34
2022-10-09T23:14:04.858Z,3.67
2022-10-09T23:16:33.471Z,3.42
2022-10-09T23:19:06.650Z,3.39
2022-10-09T23:21:37.499Z,3.42
2022-10-09T23:24:06.841Z,3.36
2022-10-09T23:26:35.735Z,3.27
2022-10-09T23:29:16.783Z,3.37
2022-10-09T23:31:45.621Z,3.52
2022-10-09T23:34:13.727Z,3.62
2022-10-09T23:36:41.581Z,4.09
2022-10-09T23:39:09.975Z,4.36
2022-10-09T23:41:38.014Z,4.59
2022-10-09T23:44:05.869Z,5.28
2022-10-09T23:46:33.995Z,5.08
2022-10-09T23:49:02.378Z,5.43
2022-10-09T23:51:30.375Z,5.71
2022-10-09T23:53:59.035Z,5.93
2022-10-09T23:56:32.889Z,6.30
2022-10-09T23:59:01.896Z,5.89
